sensor_id;sensor_type;location;lat;lon;timestamp;P1;durP1;ratioP1;P2;durP2;ratioP2
34196;SDS011;36594;45.192;5.722;2023-04-15T00:00:39;0.47;;;0.47;;
34196;SDS011;36594;45.192;5.722;2023-04-15T00:03:27;0.40;;;0.40;;
34196;SDS011;36594;45.192;5.722;2023-04-15T00:06:16;0.70;;;0.30;;
34196;SDS011;36594;45.192;5.722;2023-04-15T00:09:05;0.60;;;0.60;;
34196;SDS011;36594;45.192;5.722;2023-04-15T00:11:53;0.57;;;0.40;;
34196;SDS011;36594;45.192;5.722;2023-04-15T00:14:41;0.90;;;0.53;;
34196;SDS011;36594;45.192;5.722;2023-04-15T00:17:30;0.40;;;0.40;;
34196;SDS011;36594;45.192;5.722;2023-04-15T00:20:19;0.50;;;0.50;;
34196;SDS011;36594;45.192;5.722;2023-04-15T00:23:08;0.50;;;0.50;;
34196;SDS011;36594;45.192;5.722;2023-04-15T00:25:56;0.42;;;0.42;;
34196;SDS011;36594;45.192;5.722;2023-04-15T00:28:44;0.28;;;0.28;;
34196;SDS011;36594;45.192;5.722;2023-04-15T00:31:33;0.37;;;0.37;;
34196;SDS011;36594;45.192;5.722;2023-04-15T00:34:22;0.30;;;0.30;;
34196;SDS011;36594;45.192;5.722;2023-04-15T00:37:11;0.50;;;0.50;;
34196;SDS011;36594;45.192;5.722;2023-04-15T00:39:59;0.60;;;0.60;;
34196;SDS011;36594;45.192;5.722;2023-04-15T00:42:49;0.23;;;0.20;;
34196;SDS011;36594;45.192;5.722;2023-04-15T00:45:37;0.40;;;0.40;;
34196;SDS011;36594;45.192;5.722;2023-04-15T00:48:27;2.02;;;0.47;;
34196;SDS011;36594;45.192;5.722;2023-04-15T00:51:15;0.40;;;0.40;;
34196;SDS011;36594;45.192;5.722;2023-04-15T00:54:03;0.30;;;0.30;;
34196;SDS011;36594;45.192;5.722;2023-04-15T00:56:53;0.30;;;0.30;;
34196;SDS011;36594;45.192;5.722;2023-04-15T00:59:41;0.40;;;0.40;;
34196;SDS011;36594;45.192;5.722;2023-04-15T01:02:30;0.40;;;0.40;;
34196;SDS011;36594;45.192;5.722;2023-04-15T01:05:20;0.50;;;0.50;;
34196;SDS011;36594;45.192;5.722;2023-04-15T01:08:09;0.40;;;0.40;;
34196;SDS011;36594;45.192;5.722;2023-04-15T01:10:59;0.30;;;0.30;;
34196;SDS011;36594;45.192;5.722;2023-04-15T01:13:49;0.40;;;0.40;;
34196;SDS011;36594;45.192;5.722;2023-04-15T01:16:38;0.30;;;0.30;;
34196;SDS011;36594;45.192;5.722;2023-04-15T01:19:27;0.30;;;0.30;;
34196;SDS011;36594;45.192;5.722;2023-04-15T01:22:16;0.20;;;0.20;;
34196;SDS011;36594;45.192;5.722;2023-04-15T01:25:17;0.30;;;0.30;;
34196;SDS011;36594;45.192;5.722;2023-04-15T01:27:59;0.30;;;0.30;;
34196;SDS011;36594;45.192;5.722;2023-04-15T01:30:48;0.40;;;0.40;;
34196;SDS011;36594;45.192;5.722;2023-04-15T01:33:36;0.30;;;0.30;;
34196;SDS011;36594;45.192;5.722;2023-04-15T01:36:26;0.40;;;0.40;;
34196;SDS011;36594;45.192;5.722;2023-04-15T01:39:15;0.35;;;0.35;;
34196;SDS011;36594;45.192;5.722;2023-04-15T01:42:05;0.82;;;0.37;;
34196;SDS011;36594;45.192;5.722;2023-04-15T01:44:53;0.20;;;0.20;;
34196;SDS011;36594;45.192;5.722;2023-04-15T01:47:41;0.60;;;0.30;;
34196;SDS011;36594;45.192;5.722;2023-04-15T01:50:30;0.28;;;0.28;;
34196;SDS011;36594;45.192;5.722;2023-04-15T01:53:19;0.30;;;0.30;;
34196;SDS011;36594;45.192;5.722;2023-04-15T01:56:08;0.30;;;0.30;;
34196;SDS011;36594;45.192;5.722;2023-04-15T01:58:56;0.20;;;0.20;;
34196;SDS011;36594;45.192;5.722;2023-04-15T02:01:46;0.20;;;0.20;;
34196;SDS011;36594;45.192;5.722;2023-04-15T02:04:34;0.50;;;0.50;;
34196;SDS011;36594;45.192;5.722;2023-04-15T02:07:23;0.30;;;0.30;;
34196;SDS011;36594;45.192;5.722;2023-04-15T02:10:12;0.30;;;0.30;;
34196;SDS011;36594;45.192;5.722;2023-04-15T02:13:01;0.70;;;0.40;;
34196;SDS011;36594;45.192;5.722;2023-04-15T02:15:50;0.20;;;0.20;;
34196;SDS011;36594;45.192;5.722;2023-04-15T02:18:38;0.30;;;0.30;;
34196;SDS011;36594;45.192;5.722;2023-04-15T02:21:29;0.20;;;0.20;;
34196;SDS011;36594;45.192;5.722;2023-04-15T02:24:17;0.30;;;0.30;;
34196;SDS011;36594;45.192;5.722;2023-04-15T02:27:06;0.30;;;0.30;;
34196;SDS011;36594;45.192;5.722;2023-04-15T02:29:55;0.20;;;0.20;;
34196;SDS011;36594;45.192;5.722;2023-04-15T02:32:43;0.33;;;0.33;;
34196;SDS011;36594;45.192;5.722;2023-04-15T02:35:32;0.30;;;0.30;;
34196;SDS011;36594;45.192;5.722;2023-04-15T02:38:22;0.50;;;0.50;;
34196;SDS011;36594;45.192;5.722;2023-04-15T02:41:10;0.45;;;0.40;;
34196;SDS011;36594;45.192;5.722;2023-04-15T02:43:59;0.30;;;0.30;;
34196;SDS011;36594;45.192;5.722;2023-04-15T02:46:48;0.20;;;0.20;;
34196;SDS011;36594;45.192;5.722;2023-04-15T02:49:38;0.33;;;0.30;;
34196;SDS011;36594;45.192;5.722;2023-04-15T02:52:26;0.30;;;0.30;;
34196;SDS011;36594;45.192;5.722;2023-04-15T02:55:14;0.23;;;0.23;;
34196;SDS011;36594;45.192;5.722;2023-04-15T02:58:03;1.10;;;0.42;;
34196;SDS011;36594;45.192;5.722;2023-04-15T03:00:52;0.27;;;0.27;;
34196;SDS011;36594;45.192;5.722;2023-04-15T03:03:40;0.28;;;0.28;;
34196;SDS011;36594;45.192;5.722;2023-04-15T03:06:30;0.90;;;0.33;;
34196;SDS011;36594;45.192;5.722;2023-04-15T03:09:18;0.30;;;0.30;;
34196;SDS011;36594;45.192;5.722;2023-04-15T03:12:06;0.30;;;0.30;;
34196;SDS011;36594;45.192;5.722;2023-04-15T03:14:55;0.40;;;0.40;;
34196;SDS011;36594;45.192;5.722;2023-04-15T03:17:45;0.50;;;0.50;;
34196;SDS011;36594;45.192;5.722;2023-04-15T03:20:35;0.23;;;0.23;;
34196;SDS011;36594;45.192;5.722;2023-04-15T03:23:23;0.23;;;0.23;;
34196;SDS011;36594;45.192;5.722;2023-04-15T03:26:36;0.30;;;0.30;;
34196;SDS011;36594;45.192;5.722;2023-04-15T03:29:17;0.13;;;0.13;;
34196;SDS011;36594;45.192;5.722;2023-04-15T03:32:07;0.30;;;0.30;;
34196;SDS011;36594;45.192;5.722;2023-04-15T03:34:57;0.33;;;0.33;;
34196;SDS011;36594;45.192;5.722;2023-04-15T03:37:45;0.30;;;0.30;;
34196;SDS011;36594;45.192;5.722;2023-04-15T03:40:34;0.30;;;0.30;;
34196;SDS011;36594;45.192;5.722;2023-04-15T03:43:22;0.40;;;0.40;;
34196;SDS011;36594;45.192;5.722;2023-04-15T03:46:11;0.23;;;0.23;;
34196;SDS011;36594;45.192;5.722;2023-04-15T03:48:59;0.20;;;0.20;;
34196;SDS011;36594;45.192;5.722;2023-04-15T03:51:48;0.20;;;0.20;;
34196;SDS011;36594;45.192;5.722;2023-04-15T03:54:37;0.20;;;0.20;;
34196;SDS011;36594;45.192;5.722;2023-04-15T03:57:25;0.37;;;0.37;;
34196;SDS011;36594;45.192;5.722;2023-04-15T04:00:14;0.40;;;0.30;;
34196;SDS011;36594;45.192;5.722;2023-04-15T04:03:02;0.50;;;0.50;;
34196;SDS011;36594;45.192;5.722;2023-04-15T04:05:51;0.20;;;0.20;;
34196;SDS011;36594;45.192;5.722;2023-04-15T04:08:39;0.28;;;0.28;;
34196;SDS011;36594;45.192;5.722;2023-04-15T04:11:27;0.20;;;0.20;;
34196;SDS011;36594;45.192;5.722;2023-04-15T04:14:16;0.30;;;0.30;;
34196;SDS011;36594;45.192;5.722;2023-04-15T04:17:04;0.20;;;0.20;;
34196;SDS011;36594;45.192;5.722;2023-04-15T04:19:53;0.33;;;0.33;;
34196;SDS011;36594;45.192;5.722;2023-04-15T04:22:41;0.33;;;0.33;;
34196;SDS011;36594;45.192;5.722;2023-04-15T04:25:30;0.30;;;0.30;;
34196;SDS011;36594;45.192;5.722;2023-04-15T04:28:18;0.20;;;0.20;;
34196;SDS011;36594;45.192;5.722;2023-04-15T04:31:07;0.30;;;0.30;;
34196;SDS011;36594;45.192;5.722;2023-04-15T04:33:55;0.60;;;0.20;;
34196;SDS011;36594;45.192;5.722;2023-04-15T04:36:43;0.53;;;0.30;;
34196;SDS011;36594;45.192;5.722;2023-04-15T04:39:31;0.23;;;0.23;;
34196;SDS011;36594;45.192;5.722;2023-04-15T04:42:19;0.30;;;0.30;;
34196;SDS011;36594;45.192;5.722;2023-04-15T04:45:08;0.10;;;0.10;;
34196;SDS011;36594;45.192;5.722;2023-04-15T04:47:56;0.35;;;0.20;;
34196;SDS011;36594;45.192;5.722;2023-04-15T04:50:45;0.20;;;0.20;;
34196;SDS011;36594;45.192;5.722;2023-04-15T04:53:33;0.30;;;0.30;;
34196;SDS011;36594;45.192;5.722;2023-04-15T04:56:23;0.30;;;0.20;;
34196;SDS011;36594;45.192;5.722;2023-04-15T04:59:11;0.20;;;0.20;;
34196;SDS011;36594;45.192;5.722;2023-04-15T05:01:59;0.23;;;0.23;;
34196;SDS011;36594;45.192;5.722;2023-04-15T05:04:49;0.20;;;0.20;;
34196;SDS011;36594;45.192;5.722;2023-04-15T05:07:39;0.60;;;0.40;;
34196;SDS011;36594;45.192;5.722;2023-04-15T05:10:28;0.20;;;0.20;;
34196;SDS011;36594;45.192;5.722;2023-04-15T05:13:16;0.17;;;0.17;;
34196;SDS011;36594;45.192;5.722;2023-04-15T05:16:04;0.30;;;0.30;;
34196;SDS011;36594;45.192;5.722;2023-04-15T05:18:53;0.25;;;0.25;;
34196;SDS011;36594;45.192;5.722;2023-04-15T05:21:42;0.28;;;0.28;;
34196;SDS011;36594;45.192;5.722;2023-04-15T05:24:30;0.23;;;0.23;;
34196;SDS011;36594;45.192;5.722;2023-04-15T05:27:18;0.50;;;0.50;;
34196;SDS011;36594;45.192;5.722;2023-04-15T05:30:08;0.40;;;0.40;;
34196;SDS011;36594;45.192;5.722;2023-04-15T05:32:57;0.50;;;0.50;;
34196;SDS011;36594;45.192;5.722;2023-04-15T05:35:45;0.50;;;0.50;;
34196;SDS011;36594;45.192;5.722;2023-04-15T05:38:33;0.47;;;0.47;;
34196;SDS011;36594;45.192;5.722;2023-04-15T05:41:22;0.20;;;0.20;;
34196;SDS011;36594;45.192;5.722;2023-04-15T05:44:11;0.70;;;0.33;;
34196;SDS011;36594;45.192;5.722;2023-04-15T05:46:59;0.20;;;0.20;;
34196;SDS011;36594;45.192;5.722;2023-04-15T05:49:49;0.30;;;0.30;;
34196;SDS011;36594;45.192;5.722;2023-04-15T05:52:37;0.20;;;0.20;;
34196;SDS011;36594;45.192;5.722;2023-04-15T05:55:26;0.20;;;0.20;;
34196;SDS011;36594;45.192;5.722;2023-04-15T05:58:14;0.30;;;0.30;;
34196;SDS011;36594;45.192;5.722;2023-04-15T06:01:02;0.20;;;0.20;;
34196;SDS011;36594;45.192;5.722;2023-04-15T06:03:51;0.20;;;0.20;;
34196;SDS011;36594;45.192;5.722;2023-04-15T06:06:40;0.17;;;0.17;;
34196;SDS011;36594;45.192;5.722;2023-04-15T06:09:28;0.30;;;0.30;;
34196;SDS011;36594;45.192;5.722;2023-04-15T06:12:16;0.20;;;0.20;;
34196;SDS011;36594;45.192;5.722;2023-04-15T06:15:05;0.50;;;0.50;;
34196;SDS011;36594;45.192;5.722;2023-04-15T06:17:55;0.23;;;0.23;;
34196;SDS011;36594;45.192;5.722;2023-04-15T06:20:44;0.40;;;0.40;;
34196;SDS011;36594;45.192;5.722;2023-04-15T06:23:34;0.30;;;0.30;;
34196;SDS011;36594;45.192;5.722;2023-04-15T06:26:23;0.30;;;0.30;;
34196;SDS011;36594;45.192;5.722;2023-04-15T06:29:11;0.30;;;0.30;;
34196;SDS011;36594;45.192;5.722;2023-04-15T06:32:00;0.30;;;0.20;;
34196;SDS011;36594;45.192;5.722;2023-04-15T06:34:48;0.40;;;0.40;;
34196;SDS011;36594;45.192;5.722;2023-04-15T06:37:37;0.23;;;0.23;;
34196;SDS011;36594;45.192;5.722;2023-04-15T06:40:25;0.30;;;0.30;;
34196;SDS011;36594;45.192;5.722;2023-04-15T06:43:13;0.50;;;0.30;;
34196;SDS011;36594;45.192;5.722;2023-04-15T06:46:02;0.30;;;0.30;;
34196;SDS011;36594;45.192;5.722;2023-04-15T06:48:50;0.70;;;0.20;;
34196;SDS011;36594;45.192;5.722;2023-04-15T06:51:39;0.30;;;0.30;;
34196;SDS011;36594;45.192;5.722;2023-04-15T06:54:29;0.20;;;0.20;;
34196;SDS011;36594;45.192;5.722;2023-04-15T06:57:17;0.30;;;0.30;;
34196;SDS011;36594;45.192;5.722;2023-04-15T07:00:06;0.30;;;0.30;;
34196;SDS011;36594;45.192;5.722;2023-04-15T07:02:57;0.23;;;0.23;;
34196;SDS011;36594;45.192;5.722;2023-04-15T07:05:49;0.40;;;0.40;;
34196;SDS011;36594;45.192;5.722;2023-04-15T07:08:38;0.30;;;0.30;;
34196;SDS011;36594;45.192;5.722;2023-04-15T07:11:27;0.30;;;0.30;;
34196;SDS011;36594;45.192;5.722;2023-04-15T07:14:15;0.30;;;0.30;;
34196;SDS011;36594;45.192;5.722;2023-04-15T07:17:04;0.30;;;0.30;;
34196;SDS011;36594;45.192;5.722;2023-04-15T07:19:52;0.10;;;0.10;;
34196;SDS011;36594;45.192;5.722;2023-04-15T07:22:41;0.30;;;0.30;;
34196;SDS011;36594;45.192;5.722;2023-04-15T07:25:29;0.20;;;0.20;;
34196;SDS011;36594;45.192;5.722;2023-04-15T07:28:17;0.30;;;0.30;;
34196;SDS011;36594;45.192;5.722;2023-04-15T07:31:06;0.30;;;0.30;;
34196;SDS011;36594;45.192;5.722;2023-04-15T07:33:54;0.40;;;0.40;;
34196;SDS011;36594;45.192;5.722;2023-04-15T07:36:43;0.70;;;0.40;;
34196;SDS011;36594;45.192;5.722;2023-04-15T07:39:31;0.20;;;0.20;;
34196;SDS011;36594;45.192;5.722;2023-04-15T07:42:20;0.10;;;0.10;;
34196;SDS011;36594;45.192;5.722;2023-04-15T07:45:09;0.93;;;0.30;;
34196;SDS011;36594;45.192;5.722;2023-04-15T07:47:58;0.30;;;0.30;;
34196;SDS011;36594;45.192;5.722;2023-04-15T07:50:47;0.88;;;0.37;;
34196;SDS011;36594;45.192;5.722;2023-04-15T07:53:35;0.20;;;0.20;;
34196;SDS011;36594;45.192;5.722;2023-04-15T07:56:24;0.40;;;0.40;;
34196;SDS011;36594;45.192;5.722;2023-04-15T07:59:12;0.30;;;0.30;;
34196;SDS011;36594;45.192;5.722;2023-04-15T08:02:03;0.30;;;0.30;;
34196;SDS011;36594;45.192;5.722;2023-04-15T08:04:51;0.40;;;0.40;;
34196;SDS011;36594;45.192;5.722;2023-04-15T08:07:40;0.95;;;0.50;;
34196;SDS011;36594;45.192;5.722;2023-04-15T08:10:28;0.60;;;0.50;;
34196;SDS011;36594;45.192;5.722;2023-04-15T08:13:17;0.50;;;0.50;;
34196;SDS011;36594;45.192;5.722;2023-04-15T08:16:19;0.62;;;0.62;;
34196;SDS011;36594;45.192;5.722;2023-04-15T08:19:09;0.70;;;0.70;;
34196;SDS011;36594;45.192;5.722;2023-04-15T08:21:58;1.42;;;0.68;;
34196;SDS011;36594;45.192;5.722;2023-04-15T08:24:47;1.30;;;0.90;;
34196;SDS011;36594;45.192;5.722;2023-04-15T08:27:35;0.90;;;0.90;;
34196;SDS011;36594;45.192;5.722;2023-04-15T08:30:23;1.27;;;1.27;;
34196;SDS011;36594;45.192;5.722;2023-04-15T08:33:12;1.35;;;1.25;;
34196;SDS011;36594;45.192;5.722;2023-04-15T08:36:00;1.12;;;1.02;;
34196;SDS011;36594;45.192;5.722;2023-04-15T08:38:48;1.27;;;1.10;;
34196;SDS011;36594;45.192;5.722;2023-04-15T08:41:48;1.20;;;1.20;;
34196;SDS011;36594;45.192;5.722;2023-04-15T08:44:38;0.88;;;0.80;;
34196;SDS011;36594;45.192;5.722;2023-04-15T08:47:28;1.27;;;1.17;;
34196;SDS011;36594;45.192;5.722;2023-04-15T08:50:17;1.70;;;1.60;;
34196;SDS011;36594;45.192;5.722;2023-04-15T08:53:07;2.00;;;1.80;;
34196;SDS011;36594;45.192;5.722;2023-04-15T08:55:57;1.77;;;1.67;;
34196;SDS011;36594;45.192;5.722;2023-04-15T08:58:48;2.10;;;2.00;;
34196;SDS011;36594;45.192;5.722;2023-04-15T09:01:38;2.77;;;1.92;;
34196;SDS011;36594;45.192;5.722;2023-04-15T09:04:27;2.45;;;2.17;;
34196;SDS011;36594;45.192;5.722;2023-04-15T09:07:17;3.50;;;2.55;;
34196;SDS011;36594;45.192;5.722;2023-04-15T09:10:06;1.87;;;1.77;;
34196;SDS011;36594;45.192;5.722;2023-04-15T09:12:55;2.00;;;1.90;;
34196;SDS011;36594;45.192;5.722;2023-04-15T09:15:44;3.30;;;2.00;;
34196;SDS011;36594;45.192;5.722;2023-04-15T09:18:34;4.78;;;2.25;;
34196;SDS011;36594;45.192;5.722;2023-04-15T09:21:23;3.62;;;2.10;;
34196;SDS011;36594;45.192;5.722;2023-04-15T09:24:12;2.35;;;1.80;;
34196;SDS011;36594;45.192;5.722;2023-04-15T09:27:01;3.27;;;2.02;;
34196;SDS011;36594;45.192;5.722;2023-04-15T09:29:49;2.47;;;2.12;;
34196;SDS011;36594;45.192;5.722;2023-04-15T09:32:49;2.27;;;2.00;;
34196;SDS011;36594;45.192;5.722;2023-04-15T09:35:38;2.87;;;2.00;;
34196;SDS011;36594;45.192;5.722;2023-04-15T09:38:26;2.13;;;1.90;;
34196;SDS011;36594;45.192;5.722;2023-04-15T09:41:16;1.90;;;1.80;;
34196;SDS011;36594;45.192;5.722;2023-04-15T09:44:05;3.58;;;1.80;;
34196;SDS011;36594;45.192;5.722;2023-04-15T09:46:55;2.10;;;1.90;;
34196;SDS011;36594;45.192;5.722;2023-04-15T09:49:54;3.42;;;2.10;;
34196;SDS011;36594;45.192;5.722;2023-04-15T09:52:44;2.15;;;2.00;;
34196;SDS011;36594;45.192;5.722;2023-04-15T09:55:33;1.80;;;1.70;;
34196;SDS011;36594;45.192;5.722;2023-04-15T09:58:22;2.55;;;1.75;;
34196;SDS011;36594;45.192;5.722;2023-04-15T10:01:12;2.67;;;2.10;;
34196;SDS011;36594;45.192;5.722;2023-04-15T10:04:04;2.27;;;2.08;;
34196;SDS011;36594;45.192;5.722;2023-04-15T10:06:52;3.85;;;2.17;;
34196;SDS011;36594;45.192;5.722;2023-04-15T10:09:42;2.05;;;1.90;;
34196;SDS011;36594;45.192;5.722;2023-04-15T10:12:32;2.83;;;1.83;;
34196;SDS011;36594;45.192;5.722;2023-04-15T10:15:23;1.87;;;1.77;;
34196;SDS011;36594;45.192;5.722;2023-04-15T10:18:14;2.20;;;1.93;;
34196;SDS011;36594;45.192;5.722;2023-04-15T10:21:03;1.70;;;1.60;;
34196;SDS011;36594;45.192;5.722;2023-04-15T10:23:53;2.70;;;1.60;;
34196;SDS011;36594;45.192;5.722;2023-04-15T10:26:41;1.85;;;1.75;;
34196;SDS011;36594;45.192;5.722;2023-04-15T10:29:32;1.65;;;1.55;;
34196;SDS011;36594;45.192;5.722;2023-04-15T10:32:21;1.72;;;1.62;;
34196;SDS011;36594;45.192;5.722;2023-04-15T10:35:11;1.95;;;1.85;;
34196;SDS011;36594;45.192;5.722;2023-04-15T10:38:01;2.35;;;1.82;;
34196;SDS011;36594;45.192;5.722;2023-04-15T10:40:51;2.60;;;1.82;;
34196;SDS011;36594;45.192;5.722;2023-04-15T10:43:44;2.13;;;1.70;;
34196;SDS011;36594;45.192;5.722;2023-04-15T10:46:38;1.80;;;1.70;;
34196;SDS011;36594;45.192;5.722;2023-04-15T10:49:27;3.15;;;1.57;;
34196;SDS011;36594;45.192;5.722;2023-04-15T10:52:17;2.33;;;1.82;;
34196;SDS011;36594;45.192;5.722;2023-04-15T10:58:04;1.70;;;1.60;;
34196;SDS011;36594;45.192;5.722;2023-04-15T11:00:52;1.85;;;1.40;;
34196;SDS011;36594;45.192;5.722;2023-04-15T11:03:41;2.10;;;1.72;;
34196;SDS011;36594;45.192;5.722;2023-04-15T11:06:42;3.25;;;1.67;;
34196;SDS011;36594;45.192;5.722;2023-04-15T11:09:31;2.58;;;1.65;;
34196;SDS011;36594;45.192;5.722;2023-04-15T11:12:20;1.60;;;1.50;;
34196;SDS011;36594;45.192;5.722;2023-04-15T11:15:28;2.15;;;1.40;;
34196;SDS011;36594;45.192;5.722;2023-04-15T11:18:27;2.40;;;1.72;;
34196;SDS011;36594;45.192;5.722;2023-04-15T11:21:17;1.60;;;1.50;;
34196;SDS011;36594;45.192;5.722;2023-04-15T11:24:06;1.57;;;1.47;;
34196;SDS011;36594;45.192;5.722;2023-04-15T11:26:57;2.62;;;1.67;;
34196;SDS011;36594;45.192;5.722;2023-04-15T11:29:47;1.70;;;1.60;;
34196;SDS011;36594;45.192;5.722;2023-04-15T11:32:36;2.00;;;1.35;;
34196;SDS011;36594;45.192;5.722;2023-04-15T11:35:25;2.45;;;1.50;;
34196;SDS011;36594;45.192;5.722;2023-04-15T11:38:15;2.35;;;1.50;;
34196;SDS011;36594;45.192;5.722;2023-04-15T11:41:04;1.50;;;1.40;;
34196;SDS011;36594;45.192;5.722;2023-04-15T11:43:53;1.42;;;1.32;;
34196;SDS011;36594;45.192;5.722;2023-04-15T11:46:41;2.02;;;1.50;;
34196;SDS011;36594;45.192;5.722;2023-04-15T11:49:29;1.55;;;1.10;;
34196;SDS011;36594;45.192;5.722;2023-04-15T11:52:19;1.40;;;1.30;;
34196;SDS011;36594;45.192;5.722;2023-04-15T11:55:10;2.47;;;1.77;;
34196;SDS011;36594;45.192;5.722;2023-04-15T11:58:10;1.70;;;1.57;;
34196;SDS011;36594;45.192;5.722;2023-04-15T12:01:01;2.53;;;1.57;;
34196;SDS011;36594;45.192;5.722;2023-04-15T12:03:50;3.83;;;1.80;;
34196;SDS011;36594;45.192;5.722;2023-04-15T12:06:38;4.45;;;1.82;;
34196;SDS011;36594;45.192;5.722;2023-04-15T12:09:27;2.52;;;1.62;;
34196;SDS011;36594;45.192;5.722;2023-04-15T12:12:15;3.45;;;1.80;;
34196;SDS011;36594;45.192;5.722;2023-04-15T12:15:05;1.52;;;1.42;;
34196;SDS011;36594;45.192;5.722;2023-04-15T12:17:56;2.20;;;1.80;;
34196;SDS011;36594;45.192;5.722;2023-04-15T12:20:44;2.65;;;1.67;;
34196;SDS011;36594;45.192;5.722;2023-04-15T12:23:35;1.67;;;1.57;;
34196;SDS011;36594;45.192;5.722;2023-04-15T12:26:27;1.82;;;1.32;;
34196;SDS011;36594;45.192;5.722;2023-04-15T12:29:17;1.90;;;1.35;;
34196;SDS011;36594;45.192;5.722;2023-04-15T12:32:13;1.52;;;1.40;;
34196;SDS011;36594;45.192;5.722;2023-04-15T12:34:59;2.00;;;1.50;;
34196;SDS011;36594;45.192;5.722;2023-04-15T12:37:47;1.95;;;1.52;;
34196;SDS011;36594;45.192;5.722;2023-04-15T12:40:37;1.50;;;1.40;;
34196;SDS011;36594;45.192;5.722;2023-04-15T12:43:25;1.70;;;1.57;;
34196;SDS011;36594;45.192;5.722;2023-04-15T12:46:13;1.62;;;1.52;;
34196;SDS011;36594;45.192;5.722;2023-04-15T12:49:02;2.00;;;1.60;;
34196;SDS011;36594;45.192;5.722;2023-04-15T12:51:51;2.70;;;1.85;;
34196;SDS011;36594;45.192;5.722;2023-04-15T12:54:41;1.82;;;1.47;;
34196;SDS011;36594;45.192;5.722;2023-04-15T12:57:29;2.40;;;1.65;;
34196;SDS011;36594;45.192;5.722;2023-04-15T13:00:18;1.70;;;1.60;;
34196;SDS011;36594;45.192;5.722;2023-04-15T13:03:06;3.50;;;1.80;;
34196;SDS011;36594;45.192;5.722;2023-04-15T13:05:55;1.60;;;1.32;;
34196;SDS011;36594;45.192;5.722;2023-04-15T13:08:43;2.30;;;1.55;;
34196;SDS011;36594;45.192;5.722;2023-04-15T13:11:32;2.00;;;1.45;;
34196;SDS011;36594;45.192;5.722;2023-04-15T13:14:21;1.65;;;1.27;;
34196;SDS011;36594;45.192;5.722;2023-04-15T13:17:10;1.50;;;1.40;;
34196;SDS011;36594;45.192;5.722;2023-04-15T13:19:58;4.45;;;1.37;;
34196;SDS011;36594;45.192;5.722;2023-04-15T13:22:47;1.20;;;1.20;;
34196;SDS011;36594;45.192;5.722;2023-04-15T13:25:35;1.45;;;1.35;;
34196;SDS011;36594;45.192;5.722;2023-04-15T13:28:24;1.35;;;1.25;;
34196;SDS011;36594;45.192;5.722;2023-04-15T13:31:12;1.90;;;1.40;;
34196;SDS011;36594;45.192;5.722;2023-04-15T13:34:01;1.30;;;1.20;;
34196;SDS011;36594;45.192;5.722;2023-04-15T13:36:49;3.35;;;1.35;;
34196;SDS011;36594;45.192;5.722;2023-04-15T13:39:38;1.47;;;1.25;;
34196;SDS011;36594;45.192;5.722;2023-04-15T13:42:27;2.08;;;1.55;;
34196;SDS011;36594;45.192;5.722;2023-04-15T13:45:16;1.30;;;1.20;;
34196;SDS011;36594;45.192;5.722;2023-04-15T13:48:04;2.75;;;1.27;;
34196;SDS011;36594;45.192;5.722;2023-04-15T13:50:53;1.30;;;1.30;;
34196;SDS011;36594;45.192;5.722;2023-04-15T13:53:41;1.45;;;1.35;;
34196;SDS011;36594;45.192;5.722;2023-04-15T13:56:29;2.30;;;1.47;;
34196;SDS011;36594;45.192;5.722;2023-04-15T13:59:18;1.25;;;1.15;;
34196;SDS011;36594;45.192;5.722;2023-04-15T14:02:06;1.75;;;1.15;;
34196;SDS011;36594;45.192;5.722;2023-04-15T14:04:55;1.60;;;1.50;;
34196;SDS011;36594;45.192;5.722;2023-04-15T14:07:43;2.37;;;1.42;;
34196;SDS011;36594;45.192;5.722;2023-04-15T14:10:32;1.72;;;1.42;;
34196;SDS011;36594;45.192;5.722;2023-04-15T14:13:21;1.00;;;1.00;;
34196;SDS011;36594;45.192;5.722;2023-04-15T14:16:10;2.42;;;1.20;;
34196;SDS011;36594;45.192;5.722;2023-04-15T14:18:58;1.60;;;1.50;;
34196;SDS011;36594;45.192;5.722;2023-04-15T14:21:48;1.60;;;1.50;;
34196;SDS011;36594;45.192;5.722;2023-04-15T14:24:37;1.35;;;1.30;;
34196;SDS011;36594;45.192;5.722;2023-04-15T14:27:25;1.47;;;1.37;;
34196;SDS011;36594;45.192;5.722;2023-04-15T14:30:13;1.65;;;1.62;;
34196;SDS011;36594;45.192;5.722;2023-04-15T14:33:01;2.27;;;1.80;;
34196;SDS011;36594;45.192;5.722;2023-04-15T14:35:56;4.50;;;1.85;;
34196;SDS011;36594;45.192;5.722;2023-04-15T14:38:48;1.60;;;1.50;;
34196;SDS011;36594;45.192;5.722;2023-04-15T14:41:36;1.77;;;1.50;;
34196;SDS011;36594;45.192;5.722;2023-04-15T14:44:25;4.20;;;1.67;;
34196;SDS011;36594;45.192;5.722;2023-04-15T14:47:13;2.08;;;1.70;;
34196;SDS011;36594;45.192;5.722;2023-04-15T14:50:02;1.70;;;1.60;;
34196;SDS011;36594;45.192;5.722;2023-04-15T14:52:51;1.70;;;1.60;;
34196;SDS011;36594;45.192;5.722;2023-04-15T14:55:39;2.00;;;1.77;;
34196;SDS011;36594;45.192;5.722;2023-04-15T14:58:28;2.17;;;1.92;;
34196;SDS011;36594;45.192;5.722;2023-04-15T15:01:18;2.17;;;1.90;;
34196;SDS011;36594;45.192;5.722;2023-04-15T15:04:08;2.98;;;1.82;;
34196;SDS011;36594;45.192;5.722;2023-04-15T15:06:57;2.00;;;1.90;;
34196;SDS011;36594;45.192;5.722;2023-04-15T15:09:46;2.15;;;1.90;;
34196;SDS011;36594;45.192;5.722;2023-04-15T15:12:34;3.72;;;2.02;;
34196;SDS011;36594;45.192;5.722;2023-04-15T15:15:23;2.17;;;2.00;;
34196;SDS011;36594;45.192;5.722;2023-04-15T15:18:12;2.25;;;2.15;;
34196;SDS011;36594;45.192;5.722;2023-04-15T15:21:00;2.20;;;2.00;;
34196;SDS011;36594;45.192;5.722;2023-04-15T15:23:49;2.22;;;2.02;;
34196;SDS011;36594;45.192;5.722;2023-04-15T15:26:37;3.72;;;1.75;;
34196;SDS011;36594;45.192;5.722;2023-04-15T15:29:26;2.67;;;2.30;;
34196;SDS011;36594;45.192;5.722;2023-04-15T15:32:15;4.08;;;2.00;;
34196;SDS011;36594;45.192;5.722;2023-04-15T15:35:03;2.17;;;2.08;;
34196;SDS011;36594;45.192;5.722;2023-04-15T15:37:52;2.77;;;1.85;;
34196;SDS011;36594;45.192;5.722;2023-04-15T15:40:41;1.72;;;1.57;;
34196;SDS011;36594;45.192;5.722;2023-04-15T15:43:29;2.27;;;2.17;;
34196;SDS011;36594;45.192;5.722;2023-04-15T15:46:17;2.15;;;2.00;;
34196;SDS011;36594;45.192;5.722;2023-04-15T15:49:06;3.90;;;1.90;;
34196;SDS011;36594;45.192;5.722;2023-04-15T15:51:55;3.27;;;1.93;;
34196;SDS011;36594;45.192;5.722;2023-04-15T15:54:43;2.65;;;2.20;;
34196;SDS011;36594;45.192;5.722;2023-04-15T15:57:32;1.93;;;1.83;;
34196;SDS011;36594;45.192;5.722;2023-04-15T16:00:20;2.67;;;1.90;;
34196;SDS011;36594;45.192;5.722;2023-04-15T16:03:09;2.12;;;1.92;;
34196;SDS011;36594;45.192;5.722;2023-04-15T16:05:57;1.75;;;1.65;;
34196;SDS011;36594;45.192;5.722;2023-04-15T16:08:46;1.80;;;1.70;;
34196;SDS011;36594;45.192;5.722;2023-04-15T16:11:35;2.12;;;1.70;;
34196;SDS011;36594;45.192;5.722;2023-04-15T16:14:24;1.82;;;1.70;;
34196;SDS011;36594;45.192;5.722;2023-04-15T16:17:12;1.90;;;1.80;;
34196;SDS011;36594;45.192;5.722;2023-04-15T16:20:01;2.20;;;1.92;;
34196;SDS011;36594;45.192;5.722;2023-04-15T16:22:50;2.52;;;2.00;;
34196;SDS011;36594;45.192;5.722;2023-04-15T16:25:45;1.87;;;1.77;;
34196;SDS011;36594;45.192;5.722;2023-04-15T16:28:29;1.95;;;1.70;;
34196;SDS011;36594;45.192;5.722;2023-04-15T16:31:18;1.70;;;1.60;;
34196;SDS011;36594;45.192;5.722;2023-04-15T16:34:06;1.73;;;1.63;;
34196;SDS011;36594;45.192;5.722;2023-04-15T16:36:55;1.85;;;1.65;;
34196;SDS011;36594;45.192;5.722;2023-04-15T16:39:45;2.07;;;1.73;;
34196;SDS011;36594;45.192;5.722;2023-04-15T16:42:33;1.70;;;1.60;;
34196;SDS011;36594;45.192;5.722;2023-04-15T16:45:22;1.70;;;1.60;;
34196;SDS011;36594;45.192;5.722;2023-04-15T16:48:10;1.67;;;1.57;;
34196;SDS011;36594;45.192;5.722;2023-04-15T16:50:58;2.12;;;1.70;;
34196;SDS011;36594;45.192;5.722;2023-04-15T16:53:48;1.80;;;1.70;;
34196;SDS011;36594;45.192;5.722;2023-04-15T16:56:36;2.77;;;1.60;;
34196;SDS011;36594;45.192;5.722;2023-04-15T16:59:24;2.43;;;1.57;;
34196;SDS011;36594;45.192;5.722;2023-04-15T17:02:12;1.77;;;1.62;;